Elliot Chaparral Reserve, California Weather observations

Data are for 10 minute period ending at time listed.
 Day   Time   Solar   Ave.   Ave.  Ave.  Vector  Max.   Baro.   Total    
  of    of     Rad.   Air    Rel.  Wind   Wind   Wind  Press.  Precip.   
Year   Day            Temp.  Hum.  Speed  Dir.   Gust                    
2015   (PST)  Kw/m2    F      %     mph   deg.    mph    mb.     in.     
-------------------------------------------------------------------------
 247    7:50   0.15   68.3    58    4.4   185     7.5   983.8    0.00 
 247    8:00   0.18   69.1    57    3.1   194     8.2   983.9    0.00 
 247    8:10   0.42   70.0    55    5.5   169     8.4   983.8    0.00 
 247    8:20   0.75   73.7    48    1.3    12     4.3   983.8    0.00 
 247    8:30   0.53   74.2    48    3.3   220     7.5   983.8    0.00 
 247    8:40   0.42   72.3    51    4.8   202    10.2   983.7    0.00 
 247    8:50   0.47   72.3    51    7.1   187    11.3   983.7    0.00 
 247    9:00   0.74   73.0    50    5.6   182     9.1   983.7    0.00 
 247    9:10   0.74   74.3    48    3.8   144     9.3   983.7    0.00 
 247    9:20   0.75   73.8    50    3.9   174     8.8   983.6    0.00 
 247    9:30   0.70   73.0    54    7.3   230    14.2   983.6    0.00 
 247    9:40   0.70   74.0    51    6.9   215    11.5   983.6    0.00 
 247    9:50   0.67   73.3    52    5.6   207    11.0   983.6    0.00 
 247   10:00   0.80   74.7    50    5.2   199    10.5   983.5    0.00 
 247   10:10   0.81   74.6    50    6.0   237    11.7   983.4    0.00 
 247   10:20   0.83   74.6    49    5.3   245    13.0   983.4    0.00 
 247   10:30   0.85   75.9    47    4.2   249    10.3   983.2    0.00 
 247   10:40   0.86   74.8    50   10.9   263    18.2   983.1    0.00 
 247   10:50   0.87   74.7    50   10.2   270    15.3   983.2    0.00 
 247   11:00   0.88   74.8    50   12.0   282    16.6   983.1    0.00 
 247   11:10   0.89   74.9    50   10.0   279    15.1   983.0    0.00 
 247   11:20   0.89   74.7    50   12.2   248    19.0   983.0    0.00 
 247   11:30   0.89   75.0    49    9.9   292    17.3   982.9    0.00 
 247   11:40   0.86   75.3    48   11.7   276    19.5   982.9    0.00 
 247   11:50   0.90   74.2    50   12.7   285    18.2   982.8    0.00 
 247   12:00   0.90   75.9    47   10.7   257    16.4   982.8    0.00 
 247   12:10   0.90   75.1    48   11.8   266    17.7   982.8    0.00 
 247   12:20   0.89   74.6    48   11.2   271    18.3   982.7    0.00 
 247   12:30   0.89   75.1    47   12.3   269    18.6   982.7    0.00 
 247   12:40   0.87   75.4    47   11.4   280    17.9   982.6    0.00 
 247   12:50   0.86   74.3    51   12.5   284    19.4   982.5    0.00 
 247   13:00   0.85   75.3    50   10.6   288    17.5   982.4    0.00 
 247   13:10   0.84   75.3    50   11.3   292    18.0   982.2    0.00 
 247   13:20   0.82   75.6    49   10.4   274    17.8   982.1    0.00 
 247   13:30   0.80   75.6    51   12.1   266    17.2   982.0    0.00 
 247   13:40   0.78   75.0    52    9.3   268    14.5   982.0    0.00 
 247   13:50   0.76   75.0    52    8.1   280    13.6   981.9    0.00 
 247   14:00   0.74   74.8    52   11.7   274    17.8   981.7    0.00 
 247   14:10   0.72   75.2    52   10.6   253    15.9   981.7    0.00 
 247   14:20   0.69   75.5    51    9.6   274    16.1   981.6    0.00 
 247   14:30   0.67   74.6    53   11.3   279    16.5   981.5    0.00 
 247   14:40   0.64   74.3    53   10.0   280    16.1   981.5    0.00 
 247   14:50   0.61   74.5    53    9.1   277    13.2   981.6    0.00 
 247   15:00   0.58   74.7    53   10.9   281    17.5   981.6    0.00 
 247   15:10   0.55   74.7    53   10.4   275    14.7   981.7    0.00 
 247   15:20   0.52   74.2    54   11.1   280    15.1   981.7    0.00 
 247   15:30   0.48   73.5    55   10.2   274    17.2   981.8    0.00 
 247   15:40   0.45   74.8    52    8.8   275    13.2   981.7    0.00 
 247   15:50   0.42   73.8    54    9.4   261    15.1   981.7    0.00 
 247   16:00   0.38   73.0    56    8.2   295    12.0   981.7    0.00 
 247   16:10   0.35   73.6    55    7.3   290    12.8   981.7    0.00 
 247   16:20   0.31   73.7    55    8.9   277    13.4   981.7    0.00 
 247   16:30   0.27   72.3    58    8.8   281    15.1   981.7    0.00 
 247   16:40   0.24   72.3    58    9.7   288    15.3   981.7    0.00 
 247   16:50   0.20   71.9    58    8.1   278    12.0   981.9    0.00 
 247   17:00   0.17   71.3    60    6.7   258    11.1   981.9    0.00 
 247   17:10   0.14   71.2    60    8.4   290    11.8   981.9    0.00 
 247   17:20   0.10   70.7    61    7.6   277    10.4   981.9    0.00 
 247   17:30   0.08   70.2    62    7.1   291    10.2   981.9    0.00 
 247   17:40   0.06   69.1    65    7.8   275    10.2   982.0    0.00 
 247   17:50   0.03   68.2    67    7.9   268    11.0   981.9    0.00 
 247   18:00   0.01   67.3    69    7.4   288     9.5   981.9    0.00 
 247   18:10   0.00   66.1    72    7.4   290     9.3   981.9    0.00 
 247   18:20   0.00   65.4    73    9.2   299    11.0   981.8    0.00 
 247   18:30   0.00   65.0    75    8.8   298    11.9   981.7    0.00 
 247   18:40   0.00   64.6    76    8.4   299    11.8   981.8    0.00 
 247   18:50   0.00   64.3    77    7.2   296     8.9   982.0    0.00 
 247   19:00   0.00   64.0    78    7.2   298     9.3   982.1    0.00 
 247   19:10   0.00   63.9    79    7.2   303     8.7   982.2    0.00 
 247   19:20   0.00   63.9    79    6.9   306     8.2   982.4    0.00 
 247   19:30   0.00   63.8    80    6.9   293     7.9   982.5    0.00 
 247   19:40   0.00   63.7    80    6.6   294     8.6   982.7    0.00 
 247   19:50   0.00   63.6    81    6.3   303     7.4   982.8    0.00 
 247   20:00   0.00   63.5    81    6.7   302     8.4   982.7    0.00 
 247   20:10   0.00   63.5    81    5.9   292     8.4   983.0    0.00 
 247   20:20   0.00   63.6    81    5.1   280     6.4   983.3    0.00 
 247   20:30   0.00   63.7    80    4.7   282     5.6   983.4    0.00 
 247   20:40   0.00   63.8    80    3.1   291     4.7   983.4    0.00 
 247   20:50   0.00   63.6    80    3.5   296     5.0   983.4    0.00 
 247   21:00   0.00   63.5    81    3.4   297     5.3   983.5    0.00 
 247   21:10   0.00   63.4    81    2.4   311     3.2   983.5    0.00 
 247   21:20   0.00   63.7    80    2.6   302     4.9   983.5    0.00 
 247   21:30   0.00   63.8    80    0.9    23     1.6   983.6    0.00 
 247   21:40   0.00   63.9    80    1.6   341     3.9   983.6    0.00 
 247   21:50   0.00   64.2    79    2.4   352     3.7   983.5    0.00 
 247   22:00   0.00   64.5    78    2.1    38     3.2   983.5    0.00 
 247   22:10   0.00   64.4    78    2.1    47     2.8   983.5    0.00 
 247   22:20   0.00   64.5    78    2.7    56     3.7   983.5    0.00 
 247   22:30   0.00   64.5    78    3.1    65     3.9   983.4    0.00 
 247   22:40   0.00   64.6    78    3.4    61     5.0   983.3    0.00 
 247   22:50   0.00   64.6    78    3.4    72     5.0   983.3    0.00 
 247   23:00   0.00   64.5    78    4.2    71     5.2   983.3    0.00 
 247   23:10   0.00   64.7    77    3.6   108     5.3   983.4    0.00 
 247   23:20   0.00   64.5    77    4.5   116     5.8   983.4    0.00 
 247   23:30   0.00   64.4    78    3.2   147     6.8   983.4    0.00 
 247   23:40   0.00   64.2    78    1.8   152     3.9   983.3    0.00 
 247   23:50   0.00   64.3    78    4.4    73     7.0   983.2    0.00 
 248    0:00   0.00   64.2    78    3.9   111     9.1   983.2    0.00 
 248    0:10   0.00   64.0    78    4.1   112     8.3   983.2    0.00 
 248    0:20   0.00   64.2    78    3.9   146     8.0   983.1    0.00 
 248    0:30   0.00   64.0    78    5.0   158     8.8   983.1    0.00 
 248    0:40   0.00   64.0    79    1.9   191     3.8   983.1    0.00 
 248    0:50   0.00   64.2    78    0.6   133     3.9   983.1    0.00 
 248    1:00   0.00   64.1    78    6.1   150     8.4   983.1    0.00 
 248    1:10   0.00   64.0    79    5.6   163     8.9   983.3    0.00 
 248    1:20   0.00   63.7    79    2.4   202     8.8   983.4    0.00 
 248    1:30   0.00   64.0    78    2.0   190     4.5   983.5    0.00 
 248    1:40   0.00   64.3    77    0.8   314     2.7   983.5    0.00 
 248    1:50   0.00   64.3    77    1.3   330     2.5   983.5    0.00 
 248    2:00   0.00   64.3    78    2.2   359     3.5   983.5    0.00 
 248    2:10   0.00   64.3    77    2.3    32     3.4   983.6    0.00 
 248    2:20   0.00   64.5    77    1.8    58     2.6   983.7    0.00 
 248    2:30   0.00   64.4    77    2.6    89     3.5   983.7    0.00 
 248    2:40   0.00   64.3    77    2.5    57     2.9   983.6    0.00 
 248    2:50   0.00   64.1    77    2.2    39     2.6   983.4    0.00 
 248    3:00   0.00   63.4    78    2.8    74     3.5   983.4    0.00 
 248    3:10   0.00   62.3    80    4.5    74     5.3   983.3    0.00 
 248    3:20   0.00   62.2    81    5.5    67     6.6   983.2    0.00 
 248    3:30   0.00   62.3    81    4.8    69     5.6   983.2    0.00 
 248    3:40   0.00   61.5    82    5.6    92     7.4   983.1    0.00 
 248    3:50   0.00   61.4    82    6.8   100     8.6   983.1    0.00 
 248    4:00   0.00   61.3    82    6.3    88     7.4   983.0    0.00 
 248    4:10   0.00   61.2    83    5.0    83     6.9   982.9    0.00 
 248    4:20   0.00   61.6    82    5.1    80     6.4   982.9    0.00 
 248    4:30   0.00   61.3    83    5.2    83     6.6   982.8    0.00 
 248    4:40   0.00   61.6    83    4.0    82     4.6   982.9    0.00 
 248    4:50   0.00   61.7    82    3.6    92     4.2   983.0    0.00 
 248    5:00   0.00   61.5    83    3.3    94     3.8   982.9    0.00 
 248    5:10   0.00   61.6    83    2.4    82     3.7   983.0    0.00 
 248    5:20   0.00   62.1    82    2.2    46     2.9   983.0    0.00 
 248    5:30   0.00   62.2    82    1.7    53     2.9   983.1    0.00 
 248    5:40   0.01   62.3    81    1.3    28     1.9   983.3    0.00 
 248    5:50   0.03   63.2    80    1.9    47     2.7   983.4    0.00 
 248    6:00   0.02   63.9    78    2.2    39     3.4   983.6    0.00 
 248    6:10   0.03   63.6    79    2.0     4     3.0   983.8    0.00 
 248    6:20   0.04   63.6    79    3.1    22     4.5   983.9    0.00 
 248    6:30   0.08   64.5    77    2.9    33     4.5   984.0    0.00 
 248    6:40   0.21   66.7    72    2.7     3     4.1   984.1    0.00 
 248    6:50   0.21   67.7    68    2.2   347     5.0   984.2    0.00 
 248    7:00   0.24   68.3    66    2.7   320     5.3   984.2    0.00 
 248    7:10   0.29   69.4    64    1.3   264     3.2   984.3    0.00 
 248    7:20   0.33   70.5    62    1.3   256     4.8   984.2    0.00 
 248    7:30   0.36   70.3    62    2.5   328     4.3   984.1    0.00 
 248    7:40   0.40   69.4    64    1.4    32     4.2   984.1    0.00 

Return to Elliot Chaparral Reserve graphs page.


Western Regional Climate Center,wrcc@dri.edu